Time;durP1;ratioP1;P1;durP2;ratioP2;P2;SDS_P1;SDS_P2;PMS_P1;PMS_P2;Temp;Humidity;BMP_temperature;BMP_pressure;BME280_temperature;BME280_humidity;BME280_pressure;Samples;Min_cycle;Max_cycle;Signal;HPM_P1;HPM_P2
2021/01/17 00:00:53;;;;;;;15.07;9.90;;;-1.90;94.00;;;;;;5068724;28;20214;-66
2021/01/17 00:03:21;;;;;;;16.85;10.45;;;-1.10;94.30;;;;;;5080620;28;20242;-67
2021/01/17 00:05:49;;;;;;;14.93;9.93;;;-2.00;94.10;;;;;;5080152;28;20238;-68
2021/01/17 00:08:19;;;;;;;13.90;8.45;;;-1.90;93.90;;;;;;5079998;28;20257;-66
2021/01/17 00:10:46;;;;;;;13.00;8.90;;;-1.10;94.30;;;;;;5082391;28;20207;-71
2021/01/17 00:13:14;;;;;;;15.25;8.27;;;-2.00;94.10;;;;;;5080484;28;20203;-66
2021/01/17 00:15:41;;;;;;;9.05;7.93;;;-2.90;93.80;;;;;;5060575;28;20208;-66
2021/01/17 00:18:07;;;;;;;14.80;9.15;;;-2.00;94.10;;;;;;5072534;28;20560;-66
2021/01/17 00:20:34;;;;;;;10.23;7.90;;;-2.00;94.10;;;;;;5066248;28;20293;-67
2021/01/17 00:23:03;;;;;;;10.60;7.82;;;-2.00;94.10;;;;;;5069339;28;20211;-67
2021/01/17 00:25:30;;;;;;;12.02;9.35;;;-2.00;94.10;;;;;;5062935;28;20207;-67
2021/01/17 00:28:00;;;;;;;10.95;8.43;;;-1.20;94.40;;;;;;5080533;28;20199;-66
2021/01/17 00:30:28;;;;;;;9.77;7.80;;;-2.00;94.00;;;;;;5080034;28;20257;-66
2021/01/17 00:32:57;;;;;;;10.90;7.93;;;-0.80;94.30;;;;;;5081082;28;20210;-67
2021/01/17 00:35:25;;;;;;;13.38;6.75;;;-2.00;93.90;;;;;;5080539;28;20279;-66
2021/01/17 00:37:54;;;;;;;9.20;7.20;;;-2.00;93.80;;;;;;5080281;28;20207;-68
2021/01/17 00:40:22;;;;;;;9.57;7.10;;;-2.10;93.90;;;;;;5066869;28;20208;-68
2021/01/17 00:42:50;;;;;;;9.98;7.47;;;-2.10;93.80;;;;;;5079525;28;20203;-67
2021/01/17 00:45:18;;;;;;;7.65;5.63;;;-2.00;93.80;;;;;;5079555;28;20592;-67
2021/01/17 00:47:46;;;;;;;14.57;6.43;;;-2.10;93.60;;;;;;5079617;28;20389;-68
2021/01/17 00:50:15;;;;;;;9.70;6.00;;;-2.10;93.70;;;;;;5078131;28;20496;-67
2021/01/17 00:52:41;;;;;;;9.60;6.53;;;-2.10;93.70;;;;;;5079505;28;20207;-67
2021/01/17 00:55:09;;;;;;;11.50;6.25;;;-2.10;93.80;;;;;;5079413;28;20195;-67
2021/01/17 00:57:36;;;;;;;10.48;6.68;;;-2.10;93.80;;;;;;5079183;28;20209;-68
2021/01/17 01:00:09;;;;;;;10.82;6.55;;;-2.00;93.80;;;;;;5079902;28;20218;-68
2021/01/17 01:02:40;;;;;;;6.25;5.28;;;-2.10;93.80;;;;;;5078979;28;20226;-67
2021/01/17 01:05:07;;;;;;;7.25;6.22;;;-1.90;93.70;;;;;;5076412;28;20405;-67
2021/01/17 01:07:34;;;;;;;9.90;7.78;;;-2.10;93.80;;;;;;5079143;28;20214;-67
2021/01/17 01:10:04;;;;;;;10.95;7.32;;;-2.10;93.70;;;;;;5078681;28;20501;-68
2021/01/17 01:12:31;;;;;;;8.73;6.47;;;-2.10;93.60;;;;;;5079284;28;20242;-67
2021/01/17 01:14:57;;;;;;;12.10;8.20;;;-2.00;93.60;;;;;;5078830;28;20211;-67
2021/01/17 01:17:27;;;;;;;9.90;6.50;;;-2.00;93.60;;;;;;5079414;28;20571;-67
2021/01/17 01:19:53;;;;;;;11.05;7.05;;;-2.10;93.50;;;;;;5078599;28;20206;-67
2021/01/17 01:22:20;;;;;;;8.77;6.10;;;-2.10;93.60;;;;;;5059595;28;20222;-67
2021/01/17 01:24:46;;;;;;;8.77;6.55;;;-2.00;93.60;;;;;;5059281;28;20239;-67
2021/01/17 01:27:13;;;;;;;12.05;9.10;;;-2.00;93.40;;;;;;5074762;28;20207;-67
2021/01/17 01:29:39;;;;;;;8.68;7.70;;;-2.00;93.60;;;;;;5079242;28;20217;-67
2021/01/17 01:32:06;;;;;;;7.82;7.00;;;-2.00;93.30;;;;;;5078725;28;20516;-67
2021/01/17 01:34:33;;;;;;;7.72;6.43;;;-2.00;93.30;;;;;;5075655;28;20207;-66
2021/01/17 01:37:00;;;;;;;9.10;7.40;;;-2.10;93.30;;;;;;5078716;28;20214;-67
2021/01/17 01:39:27;;;;;;;9.10;6.63;;;-2.10;93.40;;;;;;5064816;28;20563;-66
2021/01/17 01:41:53;;;;;;;8.68;6.63;;;-2.00;93.50;;;;;;5078885;28;20210;-66
2021/01/17 01:44:20;;;;;;;6.50;5.53;;;-2.00;93.40;;;;;;5078492;28;20598;-66
2021/01/17 01:46:46;;;;;;;10.20;7.65;;;-1.80;93.20;;;;;;5072357;28;20210;-66
2021/01/17 01:49:13;;;;;;;9.05;6.50;;;-1.90;93.20;;;;;;5070189;28;20387;-66
2021/01/17 01:51:41;;;;;;;13.50;7.82;;;-2.00;93.30;;;;;;5078023;28;20225;-67
2021/01/17 01:54:10;;;;;;;9.55;7.80;;;-2.00;93.30;;;;;;5071728;28;20215;-66
2021/01/17 01:56:36;;;;;;;10.77;7.70;;;-2.00;93.50;;;;;;5078698;28;20298;-66
2021/01/17 01:59:04;;;;;;;9.85;7.30;;;-1.20;93.60;;;;;;5078257;28;20203;-67
2021/01/17 02:01:32;;;;;;;8.57;6.90;;;-1.90;93.20;;;;;;5077592;28;20611;-67
2021/01/17 02:03:58;;;;;;;10.05;8.43;;;-1.90;93.20;;;;;;5078146;28;20249;-66
2021/01/17 02:06:26;;;;;;;8.23;7.32;;;-1.40;93.40;;;;;;5078252;28;20211;-66
2021/01/17 02:08:56;;;;;;;14.50;11.32;;;-1.90;93.20;;;;;;5078107;28;20238;-66
2021/01/17 02:11:43;;;;;;;14.32;12.77;;;-2.10;93.20;;;;;;5077813;28;20270;-66
2021/01/17 02:14:15;;;;;;;22.10;15.60;;;-2.30;92.40;;;;;;5076988;28;20202;-66
2021/01/17 02:16:46;;;;;;;23.67;16.30;;;-2.50;91.90;;;;;;5078039;28;20214;-66
2021/01/17 02:19:16;;;;;;;24.00;16.05;;;-2.20;92.00;;;;;;5075130;28;20219;-66
2021/01/17 02:21:53;;;;;;;24.48;18.17;;;-2.80;92.10;;;;;;5078239;28;20214;-67
2021/01/17 02:24:33;;;;;;;21.95;16.27;;;-2.80;92.40;;;;;;5075232;28;20282;-67
2021/01/17 02:27:01;;;;;;;26.75;17.55;;;-2.80;92.20;;;;;;5076972;28;20210;-67
2021/01/17 02:29:28;;;;;;;22.25;16.95;;;-2.90;92.20;;;;;;5075256;28;20209;-66
2021/01/17 02:32:00;;;;;;;20.48;15.48;;;-1.70;92.80;;;;;;5078119;28;20278;-66
2021/01/17 02:34:29;;;;;;;23.70;16.30;;;-2.90;92.10;;;;;;5074859;28;20217;-66
2021/01/17 02:37:03;;;;;;;25.75;17.33;;;-3.00;92.40;;;;;;5077573;28;20213;-66
2021/01/17 02:39:55;;;;;;;19.60;14.02;;;-3.10;92.50;;;;;;5077829;28;20229;-66
2021/01/17 02:42:22;;;;;;;19.83;13.38;;;-3.10;91.30;;;;;;5077033;28;20229;-66
2021/01/17 02:44:50;;;;;;;21.42;14.23;;;-3.30;91.00;;;;;;5078670;28;20720;-65
2021/01/17 02:47:16;;;;;;;19.50;14.88;;;-3.40;90.80;;;;;;5077623;28;20229;-65
2021/01/17 02:49:43;;;;;;;20.35;13.93;;;-3.50;91.30;;;;;;5078157;28;20325;-65
2021/01/17 02:52:10;;;;;;;21.48;12.68;;;-3.60;90.80;;;;;;5077413;28;20210;-65
2021/01/17 02:54:40;;;;;;;16.30;13.05;;;-3.60;90.90;;;;;;5076832;28;20238;-64
2021/01/17 02:57:09;;;;;;;21.63;15.07;;;-3.70;90.60;;;;;;5078832;28;20576;-65
2021/01/17 02:59:53;;;;;;;17.48;13.35;;;-3.70;91.30;;;;;;5079409;28;20217;-65
2021/01/17 03:02:27;;;;;;;14.65;11.77;;;-3.90;90.70;;;;;;5077474;28;20230;-65
2021/01/17 03:04:59;;;;;;;19.45;12.07;;;-3.70;90.50;;;;;;5076345;28;20230;-64
2021/01/17 03:07:30;;;;;;;22.08;13.02;;;-4.00;90.70;;;;;;5077884;28;20231;-65
2021/01/17 03:09:57;;;;;;;15.55;11.00;;;-4.10;90.70;;;;;;5076385;28;20202;-63
2021/01/17 03:12:24;;;;;;;20.85;13.13;;;-2.90;90.70;;;;;;5077605;28;20266;-64
2021/01/17 03:14:51;;;;;;;15.95;10.25;;;-4.10;90.50;;;;;;5076706;28;20203;-65
2021/01/17 03:17:18;;;;;;;15.38;11.82;;;-4.30;88.70;;;;;;5077177;28;20203;-65
2021/01/17 03:19:45;;;;;;;15.10;11.43;;;-4.50;89.30;;;;;;5077721;28;20221;-64
2021/01/17 03:22:11;;;;;;;15.90;11.45;;;-4.50;89.80;;;;;;5076741;28;20217;-64
2021/01/17 03:24:38;;;;;;;19.17;12.77;;;-4.60;90.00;;;;;;5077473;28;20226;-64
2021/01/17 03:27:04;;;;;;;18.83;11.23;;;-4.60;90.00;;;;;;5075698;28;20213;-64
2021/01/17 03:29:31;;;;;;;24.00;12.73;;;-4.60;90.00;;;;;;5077007;28;20211;-64
2021/01/17 03:31:57;;;;;;;14.20;10.23;;;-4.60;90.30;;;;;;5076685;28;20206;-64
2021/01/17 03:34:24;;;;;;;19.10;11.60;;;-4.80;89.10;;;;;;5077003;28;20211;-64
2021/01/17 03:36:51;;;;;;;16.33;11.50;;;-4.80;90.20;;;;;;5077231;28;20202;-64
2021/01/17 03:39:17;;;;;;;20.00;13.05;;;-4.80;90.00;;;;;;5076646;28;20478;-64
2021/01/17 03:41:44;;;;;;;18.08;12.57;;;-4.90;89.60;;;;;;5076979;28;20211;-64
2021/01/17 03:44:12;;;;;;;23.60;13.07;;;-5.00;90.00;;;;;;5073172;28;20227;-64
2021/01/17 03:46:39;;;;;;;18.33;12.57;;;-5.10;90.20;;;;;;5076805;28;20211;-64
2021/01/17 03:49:05;;;;;;;17.38;11.38;;;-4.80;90.30;;;;;;5075720;28;20233;-63
2021/01/17 03:51:32;;;;;;;17.98;11.20;;;-5.10;89.90;;;;;;5076423;28;20210;-63
2021/01/17 03:53:58;;;;;;;14.27;12.25;;;-5.10;89.60;;;;;;5074539;28;20218;-64
2021/01/17 03:56:25;;;;;;;18.30;12.95;;;-5.20;90.10;;;;;;5072496;28;20207;-65
2021/01/17 03:58:51;;;;;;;22.88;13.23;;;-5.20;90.10;;;;;;5076578;28;20214;-62
2021/01/17 04:01:18;;;;;;;20.05;13.60;;;-5.20;90.00;;;;;;5074164;28;20208;-65
2021/01/17 04:03:45;;;;;;;22.50;14.43;;;-5.20;89.00;;;;;;5076642;28;20544;-64
2021/01/17 04:06:11;;;;;;;40.67;19.52;;;-5.20;89.80;;;;;;5076122;28;20218;-64
2021/01/17 04:08:38;;;;;;;18.52;12.60;;;-5.30;90.10;;;;;;5076646;28;20229;-63
2021/01/17 04:11:05;;;;;;;24.25;15.88;;;-5.30;89.90;;;;;;5072877;28;20306;-64
2021/01/17 04:13:31;;;;;;;24.52;15.07;;;-5.40;89.90;;;;;;5073556;28;20207;-63
2021/01/17 04:15:58;;;;;;;21.15;14.38;;;-5.50;90.00;;;;;;5076296;28;20211;-62
2021/01/17 04:18:25;;;;;;;24.13;16.35;;;-5.60;89.80;;;;;;5074660;28;20206;-63
2021/01/17 04:20:51;;;;;;;17.92;11.63;;;-5.60;90.30;;;;;;5077165;28;20232;-62
2021/01/17 04:23:18;;;;;;;20.10;13.82;;;-5.60;88.00;;;;;;5075911;28;20203;-64
2021/01/17 04:25:44;;;;;;;31.88;18.52;;;-5.60;89.30;;;;;;5078140;28;20207;-63
2021/01/17 04:28:11;;;;;;;25.58;17.00;;;-5.90;87.90;;;;;;5079396;28;20238;-62
2021/01/17 04:30:38;;;;;;;17.13;12.10;;;-6.00;86.20;;;;;;5080083;28;20238;-62
2021/01/17 04:33:05;;;;;;;23.98;13.88;;;-6.20;84.70;;;;;;5080190;28;20213;-62
2021/01/17 04:35:31;;;;;;;24.92;14.80;;;-6.20;85.40;;;;;;5080067;28;20622;-62
2021/01/17 04:37:59;;;;;;;18.70;12.25;;;-6.20;87.40;;;;;;5065615;28;20226;-63
2021/01/17 04:41:13;;;;;;;18.67;12.18;;;-6.10;87.40;;;;;;5076245;28;20217;-61
2021/01/17 04:43:45;;;;;;;18.92;12.13;;;-6.20;85.60;;;;;;5065812;28;20416;-62
2021/01/17 04:46:14;;;;;;;21.77;13.55;;;-6.30;85.60;;;;;;5079949;28;20203;-62
2021/01/17 04:48:42;;;;;;;20.52;12.65;;;-6.40;86.70;;;;;;5079216;28;20235;-61
2021/01/17 04:51:10;;;;;;;17.08;13.05;;;-6.50;86.60;;;;;;5079359;28;20225;-61
2021/01/17 04:53:37;;;;;;;18.08;11.32;;;-6.60;87.30;;;;;;5080199;28;20218;-61
2021/01/17 04:56:29;;;;;;;18.77;13.23;;;-6.50;87.50;;;;;;5077246;28;20275;-61
2021/01/17 04:59:10;;;;;;;20.38;13.05;;;-6.50;87.40;;;;;;5079859;28;20206;-61
2021/01/17 05:01:46;;;;;;;20.33;14.93;;;-6.60;87.60;;;;;;5078156;28;20222;-61
2021/01/17 05:04:13;;;;;;;19.00;12.30;;;-6.70;87.40;;;;;;5079069;28;20230;-63
2021/01/17 05:06:41;;;;;;;22.00;14.32;;;-6.70;87.40;;;;;;5079743;28;20523;-61
2021/01/17 05:09:10;;;;;;;14.90;9.65;;;-6.90;87.50;;;;;;5079581;28;20222;-60
2021/01/17 05:11:41;;;;;;;24.02;15.30;;;-6.80;87.30;;;;;;5078959;28;20242;-61
2021/01/17 05:14:10;;;;;;;18.60;12.95;;;-6.20;88.40;;;;;;5079501;28;20242;-62
2021/01/17 05:16:45;;;;;;;21.35;14.25;;;-7.00;87.30;;;;;;5078922;28;20225;-61
2021/01/17 05:19:18;;;;;;;18.25;13.20;;;-7.00;88.90;;;;;;5079229;28;20527;-61
2021/01/17 05:21:49;;;;;;;27.20;15.07;;;-6.70;88.20;;;;;;5078861;28;20199;-61
2021/01/17 05:24:18;;;;;;;22.77;13.88;;;-6.90;88.20;;;;;;5058109;28;20556;-61
2021/01/17 05:26:55;;;;;;;23.17;15.77;;;-7.00;88.00;;;;;;5076937;28;20214;-61
2021/01/17 05:29:23;;;;;;;24.17;16.02;;;-7.10;88.90;;;;;;5079290;28;20215;-61
2021/01/17 05:31:59;;;;;;;18.80;14.43;;;-7.10;89.20;;;;;;5079259;28;20249;-64
2021/01/17 05:34:28;;;;;;;24.88;15.30;;;-7.10;89.00;;;;;;5078847;28;20210;-61
2021/01/17 05:37:12;;;;;;;22.95;12.90;;;-7.10;88.30;;;;;;5079398;28;20207;-61
2021/01/17 05:40:02;;;;;;;22.40;15.93;;;-7.10;88.80;;;;;;5078269;28;20202;-61
2021/01/17 05:42:36;;;;;;;24.92;17.27;;;-7.30;89.30;;;;;;5078664;28;20234;-61
2021/01/17 05:45:15;;;;;;;24.65;16.73;;;-7.40;90.00;;;;;;5079928;28;20230;-60
2021/01/17 05:47:51;;;;;;;25.85;17.98;;;-7.50;90.10;;;;;;5076874;28;20210;-60
2021/01/17 05:50:19;;;;;;;25.67;17.42;;;-7.50;90.20;;;;;;5071171;28;20268;-60
2021/01/17 05:52:58;;;;;;;30.13;18.58;;;-7.50;90.40;;;;;;5078305;28;20207;-61
2021/01/17 05:55:35;;;;;;;24.23;16.45;;;-7.50;90.30;;;;;;5077790;28;20416;-60
2021/01/17 05:58:25;;;;;;;22.67;16.70;;;-7.40;90.10;;;;;;5075380;28;20213;-60
2021/01/17 06:00:57;;;;;;;28.80;16.90;;;-7.40;89.80;;;;;;5076057;28;20203;-61
2021/01/17 06:03:33;;;;;;;23.05;15.75;;;-7.40;89.10;;;;;;5077979;28;20555;-60
2021/01/17 06:06:05;;;;;;;26.35;18.17;;;-7.40;89.30;;;;;;5078638;28;20281;-60
2021/01/17 06:08:32;;;;;;;24.20;16.05;;;-7.60;89.50;;;;;;5077766;28;20432;-60
2021/01/17 06:11:12;;;;;;;28.67;16.40;;;-7.60;90.10;;;;;;5078213;28;20210;-60
2021/01/17 06:13:41;;;;;;;26.80;18.77;;;-7.60;90.50;;;;;;5077667;28;20206;-60
2021/01/17 06:16:39;;;;;;;26.35;16.63;;;-7.50;90.80;;;;;;5077444;28;20209;-60
2021/01/17 06:19:07;;;;;;;31.50;18.50;;;-7.30;90.30;;;;;;5075781;28;20207;-60
2021/01/17 06:21:35;;;;;;;31.05;18.40;;;-7.50;88.70;;;;;;5075335;28;20280;-60
2021/01/17 06:24:04;;;;;;;27.55;17.95;;;-7.70;88.30;;;;;;5078225;28;20265;-60
2021/01/17 06:26:35;;;;;;;31.60;20.23;;;-7.80;89.90;;;;;;5077643;28;20217;-60
2021/01/17 06:29:09;;;;;;;34.80;20.20;;;-8.00;90.10;;;;;;5064336;28;20285;-60
2021/01/17 06:31:37;;;;;;;30.20;18.08;;;-8.00;90.00;;;;;;5077755;28;20560;-60
2021/01/17 06:34:15;;;;;;;25.20;16.30;;;-8.10;90.20;;;;;;5077200;28;20229;-62
2021/01/17 06:36:43;;;;;;;18.13;13.18;;;-8.10;89.30;;;;;;5070361;28;20231;-59
2021/01/17 06:39:21;;;;;;;21.92;12.48;;;-8.10;85.70;;;;;;5075829;28;20207;-59
2021/01/17 06:41:54;;;;;;;18.80;13.07;;;-8.30;83.60;;;;;;5073163;28;20252;-60
2021/01/17 06:44:31;;;;;;;19.52;13.00;;;-8.50;84.20;;;;;;5077147;28;20558;-61
2021/01/17 06:46:59;;;;;;;23.30;13.77;;;-8.70;85.00;;;;;;5076568;28;20451;-59
2021/01/17 06:49:36;;;;;;;19.27;13.55;;;-8.80;85.20;;;;;;5076664;28;20230;-60
2021/01/17 06:52:04;;;;;;;21.95;12.85;;;-8.80;84.60;;;;;;5075939;28;20206;-60
2021/01/17 06:54:40;;;;;;;21.38;12.75;;;-8.80;84.40;;;;;;5077265;28;20211;-60
2021/01/17 06:57:08;;;;;;;21.08;13.40;;;-8.90;84.50;;;;;;5069458;28;20206;-60
2021/01/17 06:59:40;;;;;;;19.70;13.73;;;-9.00;85.50;;;;;;5077462;28;20195;-59
2021/01/17 07:02:17;;;;;;;28.38;16.35;;;-9.20;86.80;;;;;;5076902;28;20588;-60
2021/01/17 07:04:52;;;;;;;18.83;14.02;;;-9.30;87.20;;;;;;5076899;28;20421;-59
2021/01/17 07:08:04;;;;;;;25.10;15.77;;;-9.20;87.50;;;;;;5078049;28;20277;-59
2021/01/17 07:10:41;;;;;;;24.10;15.68;;;-9.30;86.90;;;;;;5049736;28;20217;-59
2021/01/17 07:13:10;;;;;;;21.05;13.30;;;-9.20;86.20;;;;;;5076604;28;20460;-57
2021/01/17 07:15:39;;;;;;;19.25;13.20;;;-9.20;86.60;;;;;;5076489;28;20211;-60
2021/01/17 07:18:12;;;;;;;24.90;15.13;;;-9.20;86.70;;;;;;5076515;28;20509;-60
2021/01/17 07:20:47;;;;;;;22.92;15.20;;;-9.20;86.80;;;;;;5077412;28;20393;-59
2021/01/17 07:23:16;;;;;;;25.52;14.52;;;-9.10;86.20;;;;;;5076633;28;20974;-57
2021/01/17 07:25:47;;;;;;;23.15;15.30;;;-9.10;85.90;;;;;;5076811;28;20302;-59
2021/01/17 07:28:17;;;;;;;23.60;16.00;;;-9.20;86.10;;;;;;5076736;28;20270;-59
2021/01/17 07:31:00;;;;;;;22.25;14.88;;;-9.10;86.50;;;;;;5076713;28;20202;-58
2021/01/17 07:33:39;;;;;;;26.55;16.38;;;-9.20;86.50;;;;;;5076673;28;20217;-59
2021/01/17 07:36:10;;;;;;;27.65;18.00;;;-9.10;86.80;;;;;;5077366;28;20198;-59
2021/01/17 07:38:41;;;;;;;29.50;16.08;;;-9.10;87.00;;;;;;5075619;28;20428;-56
2021/01/17 07:41:13;;;;;;;25.38;18.65;;;-9.10;87.00;;;;;;5076422;28;20755;-57
2021/01/17 07:43:44;;;;;;;25.02;17.98;;;-9.10;87.10;;;;;;5077359;28;20225;-59
2021/01/17 07:46:16;;;;;;;31.02;17.40;;;-9.20;86.90;;;;;;5072990;28;20210;-65
2021/01/17 07:48:46;;;;;;;26.08;16.63;;;-9.10;87.00;;;;;;5075377;28;20539;-58
2021/01/17 07:51:15;;;;;;;24.17;17.10;;;-9.00;86.90;;;;;;5076698;28;20214;-59
2021/01/17 07:53:55;;;;;;;29.13;16.83;;;-9.00;86.50;;;;;;5074926;28;20245;-58
2021/01/17 07:56:30;;;;;;;26.88;16.63;;;-8.80;86.60;;;;;;5076448;28;20207;-58
2021/01/17 07:58:59;;;;;;;28.02;17.52;;;-8.50;85.40;;;;;;5077447;28;20226;-57
2021/01/17 08:01:31;;;;;;;31.13;19.08;;;-8.40;84.00;;;;;;5079080;28;20203;-57
2021/01/17 08:04:04;;;;;;;26.15;17.27;;;-8.40;84.40;;;;;;5080881;28;20242;-59
2021/01/17 08:06:37;;;;;;;29.77;17.52;;;-8.30;83.70;;;;;;5080204;28;20221;-59
2021/01/17 08:09:14;;;;;;;27.73;17.67;;;-8.30;83.00;;;;;;5080062;28;20206;-58
2021/01/17 08:12:00;;;;;;;26.65;17.73;;;-8.20;83.00;;;;;;5079957;28;20242;-58
2021/01/17 08:14:28;;;;;;;30.98;18.15;;;-8.00;82.70;;;;;;5079699;28;20497;-58
2021/01/17 08:17:04;;;;;;;25.75;16.65;;;-8.20;82.50;;;;;;5031797;28;20245;-58
2021/01/17 08:19:37;;;;;;;25.00;16.35;;;-8.40;82.90;;;;;;4999855;28;20208;-59
2021/01/17 08:22:16;;;;;;;28.02;19.13;;;-8.40;83.60;;;;;;5000439;28;20277;-59
2021/01/17 08:24:49;;;;;;;33.30;18.35;;;-8.40;84.70;;;;;;5000439;28;20232;-59
2021/01/17 08:27:31;;;;;;;28.55;18.17;;;-8.20;83.50;;;;;;5000679;28;20213;-58
2021/01/17 08:30:03;;;;;;;32.95;19.42;;;-8.20;83.00;;;;;;4996304;28;20209;-59
2021/01/17 08:32:53;;;;;;;32.35;18.98;;;-8.30;83.20;;;;;;4988511;28;20214;-58
2021/01/17 08:35:19;;;;;;;25.65;18.20;;;-8.30;83.30;;;;;;4999029;28;20535;-60
2021/01/17 08:37:54;;;;;;;27.73;17.92;;;-8.30;83.20;;;;;;4987745;28;20220;-58
2021/01/17 08:40:27;;;;;;;33.40;21.52;;;-8.30;82.70;;;;;;5005952;28;20211;-57
2021/01/17 08:42:58;;;;;;;29.13;18.92;;;-8.20;83.50;;;;;;4988867;28;20228;-60
2021/01/17 08:45:28;;;;;;;27.23;18.02;;;-8.10;82.80;;;;;;5000662;28;20268;-59
2021/01/17 08:48:03;;;;;;;29.48;20.80;;;-8.00;82.40;;;;;;4991115;28;20217;-58
2021/01/17 08:50:38;;;;;;;27.15;17.52;;;-8.00;82.60;;;;;;4998386;28;20689;-59
2021/01/17 08:53:10;;;;;;;29.35;19.83;;;-8.00;82.30;;;;;;4996109;28;20388;-59
2021/01/17 08:55:44;;;;;;;30.15;18.25;;;-8.00;83.10;;;;;;5000184;28;20214;-59
2021/01/17 08:58:16;;;;;;;31.60;18.58;;;-7.60;82.20;;;;;;4996409;28;20209;-59
2021/01/17 09:00:48;;;;;;;22.90;14.60;;;-7.40;81.30;;;;;;4998060;28;20201;-58
2021/01/17 09:03:34;;;;;;;22.77;13.80;;;-7.10;79.90;;;;;;4997443;28;20229;-56
2021/01/17 09:06:25;;;;;;;21.42;13.32;;;-7.00;78.70;;;;;;4998159;28;20538;-59
2021/01/17 09:08:55;;;;;;;21.67;14.80;;;-6.90;78.20;;;;;;4987057;28;20511;-59
2021/01/17 09:11:25;;;;;;;20.38;12.68;;;-6.70;77.30;;;;;;4995994;28;20242;-58
2021/01/17 09:14:15;;;;;;;31.02;15.35;;;-6.80;76.80;;;;;;4998845;28;20208;-59
2021/01/17 09:16:50;;;;;;;22.13;13.82;;;-7.10;77.90;;;;;;4989432;28;20205;-59
2021/01/17 09:19:19;;;;;;;24.23;15.77;;;-7.10;79.30;;;;;;4997774;28;20216;-59
2021/01/17 09:21:50;;;;;;;20.23;12.85;;;-6.90;78.50;;;;;;4997217;28;20205;-57
2021/01/17 09:24:19;;;;;;;22.98;15.95;;;-7.20;78.00;;;;;;4985756;28;20435;-59
2021/01/17 09:26:51;;;;;;;24.33;14.65;;;-7.40;78.90;;;;;;4983616;28;20424;-58
2021/01/17 09:29:38;;;;;;;25.55;14.00;;;-7.40;79.20;;;;;;4982934;28;20210;-60
2021/01/17 09:32:15;;;;;;;30.42;17.17;;;-6.30;80.00;;;;;;4992306;28;20205;-58
2021/01/17 09:34:47;;;;;;;19.80;14.10;;;-7.10;80.30;;;;;;4984202;28;20534;-59
2021/01/17 09:37:15;;;;;;;27.55;14.90;;;-7.40;80.40;;;;;;5003417;28;20218;-58
2021/01/17 09:39:44;;;;;;;27.30;16.77;;;-7.40;79.60;;;;;;4997264;28;20265;-59
2021/01/17 09:42:12;;;;;;;25.50;16.80;;;-7.50;79.60;;;;;;4991348;28;20206;-59
2021/01/17 09:44:40;;;;;;;27.48;17.05;;;-7.30;80.10;;;;;;4981927;28;20234;-59
2021/01/17 09:47:21;;;;;;;27.48;18.05;;;-7.10;80.10;;;;;;4984096;28;20205;-59
2021/01/17 09:49:49;;;;;;;36.53;19.35;;;-7.20;79.70;;;;;;4996483;28;20742;-59
2021/01/17 09:52:25;;;;;;;30.45;17.35;;;-7.40;79.50;;;;;;4992917;28;20213;-59
2021/01/17 09:54:53;;;;;;;23.88;16.98;;;-7.20;79.50;;;;;;4998511;28;20281;-59
2021/01/17 09:57:22;;;;;;;27.25;16.83;;;-7.20;78.80;;;;;;4999896;28;20623;-59
2021/01/17 09:59:54;;;;;;;23.98;15.70;;;-7.20;79.50;;;;;;4994538;28;20205;-60
2021/01/17 10:02:21;;;;;;;29.27;16.98;;;-7.10;79.80;;;;;;4999018;28;20240;-60
2021/01/17 10:04:49;;;;;;;24.10;14.85;;;-7.00;79.40;;;;;;4996079;28;20244;-59
2021/01/17 10:07:24;;;;;;;24.20;14.02;;;-6.90;78.60;;;;;;4993870;28;20258;-58
2021/01/17 10:09:54;;;;;;;23.77;17.48;;;-7.00;77.80;;;;;;4992119;28;20549;-60
2021/01/17 10:12:21;;;;;;;28.40;17.85;;;-7.20;78.40;;;;;;5002623;28;20229;-59
2021/01/17 10:14:48;;;;;;;24.80;15.95;;;-7.40;79.00;;;;;;4992686;28;20209;-59
2021/01/17 10:17:15;;;;;;;22.30;14.63;;;-6.30;80.30;;;;;;4998310;28;20257;-58
2021/01/17 10:19:46;;;;;;;27.25;17.27;;;-7.50;80.70;;;;;;4994688;28;20197;-59
2021/01/17 10:22:14;;;;;;;27.10;17.15;;;-7.50;80.00;;;;;;4997859;28;20198;-59
2021/01/17 10:24:41;;;;;;;26.67;17.48;;;-7.30;79.70;;;;;;4992502;28;20237;-59
2021/01/17 10:27:09;;;;;;;26.67;15.85;;;-7.20;81.60;;;;;;4998637;28;20210;-60
2021/01/17 10:29:38;;;;;;;25.42;16.77;;;-7.10;81.30;;;;;;4995751;28;20217;-60
2021/01/17 10:32:12;;;;;;;23.70;15.57;;;-7.10;79.20;;;;;;4995212;28;20273;-60
2021/01/17 10:34:40;;;;;;;24.88;15.90;;;-7.20;79.50;;;;;;4988996;28;20217;-59
2021/01/17 10:37:10;;;;;;;21.55;15.60;;;-6.70;80.30;;;;;;5005870;28;20523;-59
2021/01/17 10:39:54;;;;;;;22.77;15.15;;;-7.20;80.10;;;;;;4987705;28;20201;-59
2021/01/17 10:42:23;;;;;;;25.92;16.40;;;-7.20;79.80;;;;;;4989725;28;20225;-61
2021/01/17 10:45:06;;;;;;;25.00;16.58;;;-7.40;80.00;;;;;;4988058;28;20240;-59
2021/01/17 10:47:57;;;;;;;26.60;15.18;;;-7.30;80.40;;;;;;4998063;28;20518;-59
2021/01/17 10:50:25;;;;;;;23.88;15.82;;;-7.30;80.50;;;;;;4995756;28;20300;-59
2021/01/17 10:53:11;;;;;;;21.17;13.63;;;-7.20;80.70;;;;;;4994759;28;20221;-59
2021/01/17 10:55:40;;;;;;;28.98;16.95;;;-7.30;80.30;;;;;;4995832;28;20209;-60
2021/01/17 10:58:12;;;;;;;23.15;15.23;;;-7.20;79.80;;;;;;4995426;28;20205;-59
2021/01/17 11:00:56;;;;;;;24.52;15.63;;;-7.20;79.80;;;;;;4994478;28;20205;-59
2021/01/17 11:03:33;;;;;;;23.08;15.45;;;-7.20;80.00;;;;;;4996809;28;20427;-60
2021/01/17 11:06:22;;;;;;;21.67;14.50;;;-7.30;80.00;;;;;;4984010;28;20234;-60
2021/01/17 11:08:56;;;;;;;28.45;14.35;;;-6.70;81.50;;;;;;4983625;28;20527;-60
2021/01/17 11:11:29;;;;;;;24.05;14.75;;;-7.00;80.50;;;;;;4987733;28;20617;-59
2021/01/17 11:14:04;;;;;;;23.13;14.70;;;-7.00;79.70;;;;;;4986247;28;20408;-59
2021/01/17 11:16:39;;;;;;;25.00;16.13;;;-7.10;80.70;;;;;;5008618;28;20216;-59
2021/01/17 11:19:12;;;;;;;29.02;15.70;;;-7.00;80.80;;;;;;4994202;28;20209;-60
2021/01/17 11:21:40;;;;;;;25.48;14.73;;;-7.10;80.10;;;;;;4995506;28;20214;-59
2021/01/17 11:24:08;;;;;;;22.88;15.45;;;-7.20;80.10;;;;;;4996664;28;20493;-60
2021/01/17 11:26:36;;;;;;;25.80;14.95;;;-7.20;80.50;;;;;;4994639;28;20516;-60
2021/01/17 11:29:12;;;;;;;30.60;18.13;;;-7.10;80.30;;;;;;4990072;28;20206;-61
2021/01/17 11:31:44;;;;;;;27.58;18.90;;;-6.90;80.00;;;;;;4994196;28;20546;-60
2021/01/17 11:34:15;;;;;;;33.63;19.10;;;-6.90;80.60;;;;;;4997503;28;20219;-60
2021/01/17 11:36:42;;;;;;;37.28;21.30;;;-6.90;81.60;;;;;;5001643;28;20579;-60
2021/01/17 11:39:18;;;;;;;31.48;20.02;;;-7.00;80.90;;;;;;4998963;28;20209;-60
2021/01/17 11:41:45;;;;;;;38.80;22.23;;;-7.00;81.10;;;;;;4982106;28;20300;-60
2021/01/17 11:44:17;;;;;;;38.65;23.55;;;-7.00;81.70;;;;;;4996011;28;20209;-60
2021/01/17 11:46:45;;;;;;;34.90;21.17;;;-6.90;82.10;;;;;;4996697;28;20206;-60
2021/01/17 11:49:13;;;;;;;35.45;22.13;;;-6.80;81.20;;;;;;4998640;28;20222;-61
2021/01/17 11:51:40;;;;;;;32.65;20.90;;;-6.80;80.80;;;;;;4996426;28;20210;-61
2021/01/17 11:54:10;;;;;;;37.70;21.75;;;-6.90;80.40;;;;;;4999630;28;20210;-60
2021/01/17 11:56:37;;;;;;;38.17;20.85;;;-6.70;80.60;;;;;;5000963;28;20220;-61
2021/01/17 11:59:04;;;;;;;37.13;21.30;;;-6.90;81.20;;;;;;4998453;28;20212;-63
2021/01/17 12:01:31;;;;;;;37.33;20.23;;;-6.80;80.60;;;;;;4997750;28;20214;-61
2021/01/17 12:04:05;;;;;;;32.28;19.65;;;-6.90;80.00;;;;;;4999004;28;20228;-61
2021/01/17 12:06:33;;;;;;;32.58;19.02;;;-6.80;80.20;;;;;;5000720;28;20240;-60
2021/01/17 12:09:06;;;;;;;32.40;20.13;;;-5.90;80.90;;;;;;4992384;28;20496;-61
2021/01/17 12:11:40;;;;;;;38.40;22.65;;;-6.60;80.00;;;;;;4990670;28;20225;-61
2021/01/17 12:14:20;;;;;;;39.13;23.70;;;-6.60;80.80;;;;;;4999312;28;20213;-61
2021/01/17 12:16:54;;;;;;;42.70;24.80;;;-6.40;80.20;;;;;;4997305;28;20216;-61
2021/01/17 12:19:22;;;;;;;40.75;26.52;;;-6.60;79.80;;;;;;4981522;28;20224;-61
2021/01/17 12:21:51;;;;;;;42.63;28.35;;;-6.60;79.50;;;;;;4985594;28;20396;-61
2021/01/17 12:24:17;;;;;;;48.22;28.73;;;-6.10;79.50;;;;;;4986525;28;20234;-61
2021/01/17 12:26:46;;;;;;;45.08;25.35;;;-6.50;77.30;;;;;;4987250;28;20217;-61
2021/01/17 12:29:14;;;;;;;41.40;23.88;;;-6.50;78.50;;;;;;4990625;28;20201;-61
2021/01/17 12:31:42;;;;;;;42.72;26.48;;;-6.70;80.10;;;;;;4989909;28;20385;-61
2021/01/17 12:34:10;;;;;;;42.50;23.95;;;-6.70;79.70;;;;;;5000866;28;20400;-61
2021/01/17 12:36:40;;;;;;;46.50;27.65;;;-6.70;80.00;;;;;;4997339;28;20218;-61
2021/01/17 12:39:08;;;;;;;42.63;25.20;;;-6.30;80.60;;;;;;4989387;28;20217;-62
2021/01/17 12:41:40;;;;;;;43.55;24.60;;;-6.70;79.70;;;;;;4997891;28;20234;-61
2021/01/17 12:44:07;;;;;;;38.85;24.02;;;-6.90;80.20;;;;;;4994754;28;20443;-63
2021/01/17 12:46:34;;;;;;;40.22;24.27;;;-7.10;80.40;;;;;;4999222;28;20384;-61
2021/01/17 12:49:01;;;;;;;38.42;23.80;;;-7.00;82.10;;;;;;5000603;28;20210;-61
2021/01/17 12:51:28;;;;;;;34.28;22.38;;;-6.90;81.10;;;;;;5000077;28;20210;-62